Louisville, KY (40201)

5:04 PM EST on February 06, 2016 (GMT -0500)
West Louisville (Parkland) | | Change Station
CLOSE
Current Station
Personal Weather Station
Location: Louisville, KY
Elevation: 466 ft
Nearby Weather Stations

Elev 466 ft 38.23 °N, 85.79 °W | Updated 4 minutes ago

Clear
Clear
51.1 °F
Feels Like 51.1 °F
N
1.1
Wind Variable Wind from East

Today
High -- | Low -- °F
--% Chance of Precip.
Yesterday
High -- | Low -- °F
Precip. -- in
Pressure 30.26 in
Visibility 10.0 miles
Clouds Few 8000 ft
Few 25000 ft
Dew Point 28 °F
Humidity 40%
Rainfall 0.00 in
Snow Depth Not available.
7:43 AM 6:10 PM
Waning Crescent, 4% visible
METAR KSDF 062156Z 25003KT 10SM FEW080 FEW250 11/M05 A3025 RMK AO2 SLP247 T01061050
Pressure 30.26 in
Visibility 10.0 miles
Clouds Few 8000 ft
Few 25000 ft
Dew Point 28 °F
Humidity 40%
Rainfall 0.00 in
Snow Depth Not available.
7:43 AM 6:10 PM
Waning Crescent, 4% visible
METAR KSDF 062156Z 25003KT 10SM FEW080 FEW250 11/M05 A3025 RMK AO2 SLP247 T01061050

10-Day Weather Forecast

Almanac

Astronomy

Feb. 06, 2016 Rise Set
Actual Time
Civil Twilight
Nautical Twilight
Astronomical Twilight
Moon
Length of Visible Light
Length of Day
Tomorrow will be .
, % of the Moon is Illuminated

Today's Extremes

State Highs State Lows

Community

WunderPhotos

Upload Photos

1,891,082 photos uploaded!

WunderBlog® & News

Nearby

Air Quality

  Air Quality AQ Index Pollutant
Not available.

Snow Depth

Station Depth Elevation

Earthquake Activity

City Distance Mag. Time & Date
Minimum magnitude displayed is 2.5.

Coastal Water Temperatures

Place Temperature

Stations

Nearby Weather Stations

Station Location Temp. Windchill Dew Point Humidity Wind Precip. Elev Updated Type
                   

Watches & Warnings

There are currently no watches in effect.